Time;durP1;ratioP1;P1;durP2;ratioP2;P2;SDS_P1;SDS_P2;PMS_P1;PMS_P2;Temp;Humidity;BMP_temperature;BMP_pressure;BME280_temperature;BME280_humidity;BME280_pressure;Samples;Min_cycle;Max_cycle;Signal;HPM_P1;HPM_P2
2022/03/01 00:01:54;;;;;;;19.15;9.02;;;-0.20;92.00;;;;;;5033519;28;20489;-80
2022/03/01 00:04:21;;;;;;;20.80;9.10;;;-0.20;92.20;;;;;;5034134;28;20051;-80
2022/03/01 00:06:47;;;;;;;20.02;8.90;;;-0.10;92.00;;;;;;5033670;28;20033;-80
2022/03/01 00:09:13;;;;;;;18.27;9.13;;;0.00;91.70;;;;;;5034282;28;20030;-80
2022/03/01 00:11:39;;;;;;;16.92;7.95;;;0.10;91.70;;;;;;5033176;28;20037;-80
2022/03/01 00:14:05;;;;;;;20.48;9.70;;;0.10;91.90;;;;;;5033577;28;20025;-80
2022/03/01 00:16:31;;;;;;;20.35;9.68;;;0.00;92.20;;;;;;5034282;28;20056;-81
2022/03/01 00:18:58;;;;;;;20.35;9.40;;;0.00;92.10;;;;;;5033465;28;20029;-80
2022/03/01 00:21:30;;;;;;;23.33;9.80;;;0.00;92.40;;;;;;5033501;28;20112;-80
2022/03/01 00:23:57;;;;;;;19.90;9.20;;;0.10;92.30;;;;;;5032826;28;20033;-80
2022/03/01 00:26:22;;;;;;;24.85;10.48;;;0.10;92.50;;;;;;5033645;28;20040;-80
2022/03/01 00:28:48;;;;;;;21.98;10.23;;;0.10;93.00;;;;;;5033272;28;20108;-79
2022/03/01 00:31:14;;;;;;;19.60;9.23;;;0.10;92.80;;;;;;5033310;28;20415;-79
2022/03/01 00:33:40;;;;;;;21.15;10.02;;;0.10;92.90;;;;;;5033840;28;20031;-79
2022/03/01 00:36:06;;;;;;;24.88;10.57;;;0.10;93.10;;;;;;5033062;28;20233;-80
2022/03/01 00:38:32;;;;;;;19.17;9.73;;;0.10;93.10;;;;;;5034133;28;20040;-80
2022/03/01 00:40:58;;;;;;;19.67;9.48;;;0.00;93.20;;;;;;5033010;28;20471;-79
2022/03/01 00:43:24;;;;;;;21.27;9.35;;;0.00;93.90;;;;;;5031027;28;20106;-80
2022/03/01 00:45:51;;;;;;;29.45;10.65;;;-0.10;94.40;;;;;;5013197;28;20041;-79
2022/03/01 00:48:16;;;;;;;21.67;9.60;;;-0.20;94.90;;;;;;5032048;28;20041;-79
2022/03/01 00:50:42;;;;;;;19.30;9.68;;;-0.30;95.10;;;;;;5033141;28;20033;-79
2022/03/01 00:53:08;;;;;;;21.02;9.40;;;-0.40;95.60;;;;;;5032549;28;20387;-79
2022/03/01 00:55:34;;;;;;;20.33;9.75;;;-0.50;96.10;;;;;;5033173;28;20029;-80
2022/03/01 00:58:00;;;;;;;22.30;9.85;;;-0.60;96.90;;;;;;5031248;28;20025;-78
2022/03/01 01:00:27;;;;;;;21.48;10.70;;;-0.70;97.40;;;;;;5033271;28;20441;-78
2022/03/01 01:02:52;;;;;;;23.90;9.93;;;-0.80;98.30;;;;;;5032838;28;20378;-77
2022/03/01 01:05:18;;;;;;;24.65;10.90;;;-0.80;99.20;;;;;;5033115;28;20029;-78
2022/03/01 01:07:44;;;;;;;20.60;9.98;;;-0.90;99.90;;;;;;5032840;28;20053;-79
2022/03/01 01:10:11;;;;;;;21.50;10.20;;;-0.90;99.90;;;;;;5032838;28;20104;-78
2022/03/01 01:12:37;;;;;;;22.70;10.70;;;-1.00;99.90;;;;;;5031732;28;20120;-78
2022/03/01 01:15:04;;;;;;;24.88;10.90;;;-1.00;99.90;;;;;;5031673;28;20410;-78
2022/03/01 01:17:30;;;;;;;22.52;10.00;;;-1.00;99.90;;;;;;5032455;28;20428;-78
2022/03/01 01:19:56;;;;;;;23.20;10.27;;;-1.10;99.90;;;;;;5032176;28;20021;-78
2022/03/01 01:22:39;;;;;;;21.63;9.90;;;-1.10;99.90;;;;;;5032452;28;20044;-78
2022/03/01 01:25:16;;;;;;;25.70;10.10;;;-1.20;99.90;;;;;;5031803;28;20100;-78
2022/03/01 01:27:45;;;;;;;26.13;10.43;;;-1.30;99.90;;;;;;5031584;28;20113;-78
2022/03/01 01:30:13;;;;;;;23.80;10.48;;;-1.40;99.90;;;;;;5031587;28;20029;-78
2022/03/01 01:32:39;;;;;;;23.38;10.57;;;-1.30;99.90;;;;;;5031583;28;20457;-79
2022/03/01 01:35:07;;;;;;;23.90;10.70;;;-1.30;99.90;;;;;;5031729;28;20025;-78
2022/03/01 01:37:33;;;;;;;22.23;10.35;;;-1.30;99.90;;;;;;5032628;28;20040;-78
2022/03/01 01:39:59;;;;;;;21.80;9.75;;;-1.20;99.90;;;;;;5032013;28;20079;-78
2022/03/01 01:42:25;;;;;;;21.65;10.02;;;-1.20;99.90;;;;;;5031918;28;20079;-80
2022/03/01 01:44:50;;;;;;;23.50;10.63;;;-1.20;99.90;;;;;;5016519;28;20087;-78
2022/03/01 01:47:16;;;;;;;28.80;11.60;;;-1.30;99.90;;;;;;5027147;28;20544;-79
2022/03/01 01:49:41;;;;;;;23.73;10.60;;;-1.30;99.90;;;;;;5032258;28;20104;-79
2022/03/01 01:52:07;;;;;;;21.05;10.60;;;-1.30;99.90;;;;;;5031326;28;20033;-79
2022/03/01 01:54:33;;;;;;;26.65;10.43;;;-1.40;99.90;;;;;;5032464;28;20382;-79
2022/03/01 01:56:59;;;;;;;19.38;9.57;;;-1.50;99.90;;;;;;5031563;28;20033;-79
2022/03/01 01:59:25;;;;;;;22.17;10.50;;;-1.60;99.90;;;;;;5032483;28;20095;-79
2022/03/01 02:01:50;;;;;;;20.52;10.32;;;-1.60;99.90;;;;;;5032413;28;20466;-79
2022/03/01 02:04:16;;;;;;;25.15;10.20;;;-1.80;99.90;;;;;;5032621;28;20029;-81
2022/03/01 02:06:52;;;;;;;22.25;9.73;;;-1.90;99.90;;;;;;5030810;28;20406;-79
2022/03/01 02:09:18;;;;;;;23.58;11.70;;;-2.00;99.90;;;;;;5031617;28;20025;-78
2022/03/01 02:11:44;;;;;;;26.85;11.70;;;-2.10;99.90;;;;;;5031730;28;20336;-78
2022/03/01 02:14:09;;;;;;;24.63;10.10;;;-2.10;99.90;;;;;;5031644;28;20068;-78
2022/03/01 02:16:36;;;;;;;26.88;12.27;;;-2.20;99.90;;;;;;5031978;28;20091;-79
2022/03/01 02:19:04;;;;;;;25.65;12.00;;;-2.10;99.90;;;;;;5031570;28;20096;-79
2022/03/01 02:21:30;;;;;;;28.60;13.43;;;-2.20;99.90;;;;;;5035108;28;20042;-77
2022/03/01 02:23:55;;;;;;;29.65;12.88;;;-2.20;99.90;;;;;;5037451;28;20094;-78
2022/03/01 02:26:21;;;;;;;32.33;14.15;;;-2.10;99.90;;;;;;5045284;28;20077;-78
2022/03/01 02:28:47;;;;;;;32.90;14.40;;;-2.20;99.90;;;;;;5055010;28;20013;-77
2022/03/01 02:31:12;;;;;;;30.92;13.00;;;-2.20;99.90;;;;;;5043711;28;20030;-77
2022/03/01 02:33:38;;;;;;;29.23;12.65;;;-2.20;99.90;;;;;;5031755;28;20364;-78
2022/03/01 02:36:04;;;;;;;22.08;10.65;;;-2.20;99.90;;;;;;5031589;28;20140;-78
2022/03/01 02:38:29;;;;;;;27.42;11.15;;;-2.20;99.90;;;;;;5031836;28;20022;-79
2022/03/01 02:40:55;;;;;;;24.60;10.80;;;-2.10;99.90;;;;;;5031394;28;20037;-78
2022/03/01 02:43:21;;;;;;;23.08;10.27;;;-2.10;99.90;;;;;;5028701;28;20044;-79
2022/03/01 02:45:46;;;;;;;24.27;11.00;;;-2.10;99.90;;;;;;5012266;28;20038;-78
2022/03/01 02:48:12;;;;;;;27.67;11.02;;;-2.10;99.90;;;;;;5023485;28;20029;-79
2022/03/01 02:50:38;;;;;;;24.73;12.25;;;-2.10;99.90;;;;;;5031704;28;20029;-78
2022/03/01 02:53:03;;;;;;;29.08;12.68;;;-2.10;99.90;;;;;;5030884;28;20099;-79
2022/03/01 02:55:29;;;;;;;26.63;11.85;;;-2.10;99.90;;;;;;5031706;28;20047;-78
2022/03/01 02:57:54;;;;;;;24.63;11.60;;;-2.10;99.90;;;;;;5030976;28;20033;-79
2022/03/01 03:00:20;;;;;;;24.77;11.18;;;-2.20;99.90;;;;;;5031655;28;20026;-79
2022/03/01 03:02:46;;;;;;;27.00;11.00;;;-2.20;99.90;;;;;;5038337;28;20029;-78
2022/03/01 03:05:11;;;;;;;24.77;11.98;;;-2.20;99.90;;;;;;5033043;28;20041;-79
2022/03/01 03:07:37;;;;;;;22.25;10.88;;;-2.20;99.90;;;;;;5035256;28;20026;-78
2022/03/01 03:10:04;;;;;;;21.95;10.73;;;-2.20;99.90;;;;;;5034616;28;20076;-79
2022/03/01 03:12:30;;;;;;;21.73;10.85;;;-2.20;99.90;;;;;;5034788;28;20034;-79
2022/03/01 03:14:57;;;;;;;22.98;10.45;;;-2.20;99.90;;;;;;5035271;28;20060;-78
2022/03/01 03:17:23;;;;;;;26.00;11.77;;;-2.10;99.90;;;;;;5033841;28;20025;-78
2022/03/01 03:19:48;;;;;;;20.83;10.10;;;-2.10;99.90;;;;;;5034686;28;20494;-78
2022/03/01 03:22:14;;;;;;;24.77;10.40;;;-2.10;99.90;;;;;;5034014;28;20037;-78
2022/03/01 03:24:40;;;;;;;20.90;10.93;;;-2.10;99.90;;;;;;5034500;28;20033;-78
2022/03/01 03:27:05;;;;;;;23.50;11.15;;;-2.10;99.90;;;;;;5034379;28;20069;-78
2022/03/01 03:29:31;;;;;;;25.52;10.32;;;-2.10;99.90;;;;;;5034843;28;20394;-78
2022/03/01 03:31:57;;;;;;;23.65;10.57;;;-2.00;99.90;;;;;;5032790;28;20041;-77
2022/03/01 03:34:24;;;;;;;25.88;10.88;;;-2.00;99.90;;;;;;5034583;28;20397;-78
2022/03/01 03:36:50;;;;;;;26.55;10.45;;;-1.90;99.90;;;;;;5034624;28;20104;-76
2022/03/01 03:39:15;;;;;;;20.30;9.93;;;-1.90;99.90;;;;;;5034082;28;20112;-77
2022/03/01 03:41:41;;;;;;;26.45;10.65;;;-1.90;99.90;;;;;;5034617;28;20045;-79
2022/03/01 03:44:07;;;;;;;20.95;10.27;;;-1.90;99.90;;;;;;5023947;28;20029;-80
2022/03/01 03:46:34;;;;;;;25.65;11.20;;;-1.90;99.90;;;;;;5014484;28;20034;-75
2022/03/01 03:49:00;;;;;;;21.52;10.65;;;-1.90;99.90;;;;;;5029956;28;20029;-78
2022/03/01 03:51:26;;;;;;;22.13;10.55;;;-2.00;99.90;;;;;;5034319;28;20095;-78
2022/03/01 03:53:52;;;;;;;23.15;10.63;;;-2.00;99.90;;;;;;5035407;28;20065;-79
2022/03/01 03:56:18;;;;;;;24.20;10.98;;;-2.00;99.90;;;;;;5034377;28;20433;-78
2022/03/01 03:58:44;;;;;;;19.17;10.30;;;-2.00;99.90;;;;;;5033010;28;20054;-79
2022/03/01 04:01:09;;;;;;;24.08;10.32;;;-2.00;99.90;;;;;;5034040;28;20029;-77
2022/03/01 04:03:35;;;;;;;24.73;10.13;;;-2.00;99.90;;;;;;5034464;28;20497;-78
2022/03/01 04:06:01;;;;;;;20.33;10.45;;;-2.00;99.90;;;;;;5033931;28;20470;-78
2022/03/01 04:08:27;;;;;;;20.27;10.50;;;-2.00;99.90;;;;;;5033835;28;20030;-78
2022/03/01 04:10:54;;;;;;;21.92;9.85;;;-1.90;99.90;;;;;;5033916;28;20036;-78
2022/03/01 04:13:20;;;;;;;21.35;9.68;;;-1.90;99.90;;;;;;5033836;28;20029;-79
2022/03/01 04:15:45;;;;;;;22.40;10.52;;;-1.80;99.90;;;;;;5032156;28;20056;-80
2022/03/01 04:18:11;;;;;;;23.00;10.40;;;-1.80;99.90;;;;;;5033428;28;20033;-79
2022/03/01 04:20:37;;;;;;;20.63;9.70;;;-1.80;99.90;;;;;;5033929;28;20025;-81
2022/03/01 04:23:02;;;;;;;23.38;11.05;;;-1.80;99.90;;;;;;5032798;28;20470;-79
2022/03/01 04:25:28;;;;;;;19.33;10.40;;;-1.80;99.90;;;;;;5033887;28;20352;-80
2022/03/01 04:27:54;;;;;;;21.45;9.52;;;-1.80;99.90;;;;;;5033170;28;20033;-78
2022/03/01 04:30:20;;;;;;;19.83;9.90;;;-1.80;99.90;;;;;;5033680;28;20025;-81
2022/03/01 04:32:45;;;;;;;21.33;10.20;;;-1.80;99.90;;;;;;5033259;28;20136;-78
2022/03/01 04:35:13;;;;;;;19.75;9.45;;;-1.80;99.90;;;;;;5032846;28;20029;-77
2022/03/01 04:37:41;;;;;;;24.67;11.45;;;-1.90;99.90;;;;;;5033351;28;20053;-78
2022/03/01 04:40:08;;;;;;;22.10;10.55;;;-1.80;99.90;;;;;;5033178;28;20025;-78
2022/03/01 04:42:35;;;;;;;24.88;10.57;;;-1.80;99.90;;;;;;5033687;28;20436;-78
2022/03/01 04:45:01;;;;;;;20.17;9.85;;;-1.80;99.90;;;;;;5016113;28;20049;-78
2022/03/01 04:47:27;;;;;;;23.55;10.23;;;-1.80;99.90;;;;;;5012390;28;20125;-76
2022/03/01 04:49:52;;;;;;;22.73;10.60;;;-1.80;99.90;;;;;;5013418;28;20073;-76
2022/03/01 04:52:18;;;;;;;18.83;10.07;;;-1.80;99.90;;;;;;5019955;28;20120;-79
2022/03/01 04:54:44;;;;;;;20.60;9.73;;;-1.80;99.90;;;;;;5033506;28;20108;-79
2022/03/01 04:57:10;;;;;;;20.63;10.48;;;-1.70;99.90;;;;;;5032164;28;20029;-76
2022/03/01 04:59:36;;;;;;;20.10;9.13;;;-1.60;99.90;;;;;;5032884;28;20390;-77
2022/03/01 05:02:01;;;;;;;21.70;10.68;;;-1.70;99.90;;;;;;5032163;28;20033;-76
2022/03/01 05:04:27;;;;;;;21.40;9.43;;;-1.70;99.90;;;;;;5032759;28;20433;-77
2022/03/01 05:06:54;;;;;;;21.27;10.43;;;-1.70;99.90;;;;;;5033111;28;20057;-76
2022/03/01 05:09:21;;;;;;;20.27;10.43;;;-1.80;99.90;;;;;;5032062;28;20025;-77
2022/03/01 05:11:49;;;;;;;21.42;10.45;;;-1.90;99.90;;;;;;5032581;28;20026;-77
2022/03/01 05:14:14;;;;;;;19.92;10.32;;;-1.90;99.90;;;;;;5031956;28;20077;-77
2022/03/01 05:16:40;;;;;;;20.90;10.30;;;-2.00;99.90;;;;;;5032626;28;20036;-78
2022/03/01 05:19:07;;;;;;;20.33;10.20;;;-2.00;99.90;;;;;;5032211;28;20067;-76
2022/03/01 05:21:32;;;;;;;19.25;10.82;;;-2.10;99.90;;;;;;5032496;28;20447;-75
2022/03/01 05:23:58;;;;;;;21.70;10.65;;;-2.20;99.90;;;;;;5030265;28;20060;-76
2022/03/01 05:26:24;;;;;;;25.90;11.90;;;-2.20;99.90;;;;;;5032704;28;20029;-75
2022/03/01 05:28:50;;;;;;;23.50;11.32;;;-2.20;99.90;;;;;;5030945;28;20041;-76
2022/03/01 05:31:15;;;;;;;21.95;11.23;;;-2.10;99.90;;;;;;5032075;28;20268;-75
2022/03/01 05:33:41;;;;;;;24.98;11.98;;;-2.00;99.90;;;;;;5032321;28;20386;-76
2022/03/01 05:36:07;;;;;;;24.05;10.68;;;-2.00;99.90;;;;;;5030537;28;20029;-77
2022/03/01 05:38:32;;;;;;;23.67;10.15;;;-2.00;99.90;;;;;;5032422;28;20033;-80
2022/03/01 05:40:58;;;;;;;20.52;9.98;;;-2.00;99.90;;;;;;5031904;28;20108;-78
2022/03/01 05:43:23;;;;;;;21.33;10.38;;;-2.00;99.90;;;;;;5028512;28;20386;-77
2022/03/01 05:45:49;;;;;;;23.17;10.93;;;-2.10;99.90;;;;;;5028640;28;20033;-77
2022/03/01 05:48:15;;;;;;;22.63;10.77;;;-2.10;99.90;;;;;;5031489;28;20029;-77
2022/03/01 05:50:40;;;;;;;22.13;10.85;;;-2.20;99.90;;;;;;5031789;28;20497;-78
2022/03/01 05:53:06;;;;;;;21.80;10.73;;;-2.30;99.90;;;;;;5031324;28;20045;-77
2022/03/01 05:55:32;;;;;;;23.13;11.00;;;-2.30;99.90;;;;;;5030735;28;20038;-76
2022/03/01 05:57:57;;;;;;;24.40;11.00;;;-2.40;99.90;;;;;;5031455;28;20063;-76
2022/03/01 06:00:23;;;;;;;24.95;11.27;;;-2.50;99.90;;;;;;5034178;28;20021;-78
2022/03/01 06:02:50;;;;;;;22.98;11.25;;;-2.50;99.90;;;;;;5032064;28;20381;-78
2022/03/01 06:05:16;;;;;;;22.52;11.00;;;-2.60;99.90;;;;;;5031435;28;20040;-79
2022/03/01 06:07:43;;;;;;;28.95;11.80;;;-2.60;99.90;;;;;;5032300;28;20386;-78
2022/03/01 06:10:09;;;;;;;25.58;11.10;;;-2.60;99.90;;;;;;5033551;28;20439;-74
2022/03/01 06:12:35;;;;;;;24.10;10.60;;;-2.50;99.90;;;;;;5035945;28;20099;-73
2022/03/01 06:15:02;;;;;;;24.83;12.35;;;-2.50;99.90;;;;;;5035532;28;20465;-74
2022/03/01 06:17:28;;;;;;;27.23;12.02;;;-2.50;99.90;;;;;;5036305;28;20356;-72
2022/03/01 06:19:54;;;;;;;25.70;11.75;;;-2.50;99.90;;;;;;5031798;28;20471;-75
2022/03/01 06:22:20;;;;;;;24.88;11.25;;;-2.60;99.90;;;;;;5030070;28;20462;-76
2022/03/01 06:24:47;;;;;;;26.50;10.63;;;-2.70;99.90;;;;;;5032342;28;20034;-73
2022/03/01 06:27:13;;;;;;;22.42;11.00;;;-2.70;99.90;;;;;;5031563;28;20025;-73
2022/03/01 06:29:39;;;;;;;24.05;10.90;;;-2.80;99.90;;;;;;5031957;28;20025;-74
2022/03/01 06:32:06;;;;;;;24.80;11.13;;;-2.90;99.90;;;;;;5032447;28;20038;-74
2022/03/01 06:34:32;;;;;;;24.77;11.68;;;-2.90;99.90;;;;;;5031633;28;20091;-72
2022/03/01 06:36:58;;;;;;;21.83;11.40;;;-3.00;99.90;;;;;;5031805;28;20021;-73
2022/03/01 06:39:23;;;;;;;26.30;11.88;;;-3.10;99.90;;;;;;5031998;28;20478;-73
2022/03/01 06:41:50;;;;;;;33.83;12.82;;;-3.10;99.90;;;;;;5036293;28;20064;-73
2022/03/01 06:44:16;;;;;;;30.17;11.43;;;-3.20;99.90;;;;;;5032845;28;20049;-73
2022/03/01 06:46:42;;;;;;;25.40;11.98;;;-3.20;99.90;;;;;;5035698;28;20029;-72
2022/03/01 06:49:08;;;;;;;27.77;11.90;;;-3.30;99.90;;;;;;5034685;28;20451;-71
2022/03/01 06:51:33;;;;;;;24.45;11.80;;;-3.30;99.90;;;;;;5035112;28;20053;-73
2022/03/01 06:54:00;;;;;;;24.15;11.88;;;-3.30;99.90;;;;;;5034814;28;20068;-74
2022/03/01 06:56:26;;;;;;;22.60;11.10;;;-3.30;99.90;;;;;;5038290;28;20022;-76
2022/03/01 06:58:52;;;;;;;28.70;12.80;;;-3.30;99.90;;;;;;5034929;28;20056;-74
2022/03/01 07:01:17;;;;;;;23.75;11.65;;;-3.20;99.90;;;;;;5033821;28;20025;-78
2022/03/01 07:03:43;;;;;;;23.92;12.30;;;-3.20;99.90;;;;;;5034355;28;20046;-77
2022/03/01 07:06:10;;;;;;;34.20;13.15;;;-3.10;99.90;;;;;;5033810;28;20032;-80
2022/03/01 07:08:35;;;;;;;31.40;12.32;;;-3.00;99.90;;;;;;5034352;28;20032;-79
2022/03/01 07:11:01;;;;;;;31.83;13.73;;;-2.90;99.90;;;;;;5034480;28;20410;-76
2022/03/01 07:13:26;;;;;;;30.45;13.23;;;-2.90;99.90;;;;;;5033685;28;20030;-74
2022/03/01 07:15:52;;;;;;;26.33;12.48;;;-2.80;99.90;;;;;;5034854;28;20502;-76
2022/03/01 07:18:18;;;;;;;27.90;12.40;;;-2.70;99.90;;;;;;5033334;28;20029;-76
2022/03/01 07:20:43;;;;;;;27.27;12.20;;;-2.60;99.90;;;;;;5034147;28;20032;-76
2022/03/01 07:23:10;;;;;;;26.98;11.65;;;-2.50;99.90;;;;;;5033558;28;20026;-73
2022/03/01 07:25:36;;;;;;;26.95;12.10;;;-2.30;99.90;;;;;;5034190;28;20025;-75
2022/03/01 07:28:03;;;;;;;18.25;9.60;;;-2.20;99.90;;;;;;5025304;28;20056;-75
2022/03/01 07:30:29;;;;;;;21.02;10.07;;;-1.90;99.90;;;;;;5027209;28;20108;-75
2022/03/01 07:32:59;;;;;;;26.70;11.75;;;-1.70;99.90;;;;;;5023430;28;20108;-75
2022/03/01 07:35:25;;;;;;;23.35;11.70;;;-1.60;99.90;;;;;;5023973;28;20029;-75
2022/03/01 07:37:52;;;;;;;21.45;10.68;;;-1.40;99.90;;;;;;5034427;28;20410;-75
2022/03/01 07:40:19;;;;;;;23.15;10.85;;;-1.30;99.90;;;;;;5033259;28;20466;-74
2022/03/01 07:42:45;;;;;;;23.77;10.95;;;-1.20;99.90;;;;;;5032587;28;20128;-76
2022/03/01 07:45:12;;;;;;;26.67;11.18;;;-1.10;99.90;;;;;;5032336;28;20042;-77
2022/03/01 07:47:38;;;;;;;22.73;10.55;;;-1.00;99.90;;;;;;5028383;28;20040;-76
2022/03/01 07:50:05;;;;;;;23.20;10.90;;;-0.90;98.70;;;;;;5033193;28;20022;-74
2022/03/01 07:52:31;;;;;;;20.02;9.85;;;-0.80;98.70;;;;;;5032970;28;20506;-75
2022/03/01 07:54:57;;;;;;;22.20;10.70;;;-0.70;98.50;;;;;;5022278;28;20030;-74
2022/03/01 07:57:22;;;;;;;18.42;9.38;;;-0.60;97.20;;;;;;5025508;28;20030;-83
2022/03/01 07:59:48;;;;;;;22.17;10.15;;;-0.50;97.40;;;;;;5022707;28;20033;-80
2022/03/01 08:02:13;;;;;;;20.30;9.90;;;-0.30;98.50;;;;;;5034562;28;20033;-80
2022/03/01 08:04:41;;;;;;;23.17;10.40;;;-0.10;95.90;;;;;;5036298;28;20025;-83
2022/03/01 08:07:09;;;;;;;23.75;10.73;;;0.00;94.80;;;;;;5033401;28;20412;-71
2022/03/01 08:09:36;;;;;;;22.10;10.35;;;0.10;93.80;;;;;;5029730;28;20030;-73
2022/03/01 08:12:02;;;;;;;20.98;10.38;;;0.20;92.90;;;;;;5031651;28;20049;-75
2022/03/01 08:14:30;;;;;;;20.05;9.75;;;0.20;92.50;;;;;;5031803;28;20036;-74
2022/03/01 08:16:56;;;;;;;20.08;10.40;;;0.30;92.30;;;;;;5031847;28;20018;-74
2022/03/01 08:19:23;;;;;;;21.13;10.60;;;0.30;92.10;;;;;;5030871;28;20421;-76
2022/03/01 08:21:48;;;;;;;22.00;10.23;;;0.40;91.60;;;;;;5032466;28;20048;-75
2022/03/01 08:24:14;;;;;;;24.00;11.27;;;0.50;91.20;;;;;;5032999;28;20119;-76
2022/03/01 08:26:40;;;;;;;22.60;11.07;;;0.50;91.10;;;;;;5032693;28;20130;-73
2022/03/01 08:29:06;;;;;;;26.17;11.40;;;0.60;91.20;;;;;;5029072;28;20478;-74
2022/03/01 08:31:31;;;;;;;21.08;9.55;;;0.70;90.20;;;;;;5031970;28;20091;-74
2022/03/01 08:33:59;;;;;;;23.10;10.60;;;0.80;90.00;;;;;;5032516;28;20021;-75
2022/03/01 08:36:25;;;;;;;22.00;10.13;;;0.90;89.50;;;;;;5031673;28;20620;-75
2022/03/01 08:38:51;;;;;;;20.02;10.35;;;1.00;86.60;;;;;;5022250;28;20021;-76
2022/03/01 08:41:17;;;;;;;26.52;10.07;;;1.00;86.60;;;;;;5032344;28;20020;-74
2022/03/01 08:43:43;;;;;;;22.75;8.70;;;1.00;85.90;;;;;;5032800;28;20017;-75
2022/03/01 08:46:14;;;;;;;17.38;9.63;;;1.00;85.80;;;;;;5031777;28;20060;-74
2022/03/01 08:48:40;;;;;;;23.80;9.48;;;1.10;84.50;;;;;;5026124;28;20036;-75
2022/03/01 08:51:06;;;;;;;17.48;9.25;;;1.20;83.70;;;;;;5026784;28;20041;-74
2022/03/01 08:53:32;;;;;;;22.33;9.25;;;1.30;82.50;;;;;;5030681;28;20060;-75
2022/03/01 08:55:59;;;;;;;19.45;9.43;;;1.50;81.40;;;;;;5027625;28;20025;-75
2022/03/01 08:58:27;;;;;;;21.52;10.85;;;1.60;81.30;;;;;;5030597;28;20033;-74
2022/03/01 09:00:52;;;;;;;19.35;8.90;;;1.60;79.90;;;;;;5032423;28;20446;-74
2022/03/01 09:03:18;;;;;;;18.70;9.85;;;1.70;78.70;;;;;;5030550;28;20082;-74
2022/03/01 09:05:44;;;;;;;19.25;9.43;;;1.80;78.60;;;;;;5032234;28;20108;-74
2022/03/01 09:08:14;;;;;;;22.45;9.73;;;1.80;77.70;;;;;;5029854;28;20111;-74
2022/03/01 09:10:40;;;;;;;19.67;8.95;;;1.90;77.60;;;;;;5032393;28;20032;-76
2022/03/01 09:13:06;;;;;;;23.60;9.95;;;1.90;77.30;;;;;;5030504;28;20037;-74
2022/03/01 09:15:32;;;;;;;20.70;9.20;;;2.00;75.60;;;;;;5032454;28;20364;-74
2022/03/01 09:18:03;;;;;;;18.38;9.40;;;2.10;75.70;;;;;;5029631;28;20031;-74
2022/03/01 09:20:30;;;;;;;24.08;10.55;;;2.10;75.90;;;;;;5032150;28;20033;-75
2022/03/01 09:22:57;;;;;;;21.02;9.40;;;2.30;75.50;;;;;;5031964;28;20123;-74
2022/03/01 09:25:23;;;;;;;16.70;9.27;;;2.40;73.90;;;;;;5030592;28;20092;-75
2022/03/01 09:27:50;;;;;;;14.15;8.68;;;2.50;73.00;;;;;;5025956;28;20025;-75
2022/03/01 09:30:16;;;;;;;20.48;9.73;;;2.50;73.20;;;;;;5032201;28;20052;-75
2022/03/01 09:32:43;;;;;;;18.80;9.18;;;2.50;72.10;;;;;;5030566;28;20033;-74
2022/03/01 09:35:09;;;;;;;17.65;8.88;;;2.50;71.50;;;;;;5031105;28;20033;-75
2022/03/01 09:37:35;;;;;;;15.20;8.82;;;2.50;71.90;;;;;;5030580;28;20035;-75
2022/03/01 09:40:03;;;;;;;20.50;9.18;;;2.50;71.90;;;;;;5032234;28;20374;-75
2022/03/01 09:42:29;;;;;;;19.05;8.50;;;2.60;71.10;;;;;;5027171;28;20026;-76
2022/03/01 09:44:55;;;;;;;20.15;9.32;;;2.80;70.10;;;;;;5029174;28;20029;-75
2022/03/01 09:47:22;;;;;;;16.45;8.45;;;2.90;69.80;;;;;;5026485;28;20399;-75
2022/03/01 09:49:48;;;;;;;18.70;9.05;;;2.90;68.90;;;;;;5027734;28;20075;-76
2022/03/01 09:52:14;;;;;;;14.98;8.73;;;3.00;67.00;;;;;;5026850;28;20401;-76
2022/03/01 09:54:41;;;;;;;15.98;8.68;;;3.10;66.50;;;;;;5031420;28;20022;-75
2022/03/01 09:57:07;;;;;;;14.23;8.43;;;3.20;67.00;;;;;;5029917;28;20037;-75
2022/03/01 09:59:33;;;;;;;15.00;8.55;;;3.30;66.70;;;;;;5034142;28;20029;-75
2022/03/01 10:01:59;;;;;;;14.18;8.43;;;3.40;66.50;;;;;;5035658;28;20108;-75
2022/03/01 10:04:25;;;;;;;15.15;8.50;;;3.50;65.90;;;;;;5038925;28;20093;-75
2022/03/01 10:06:52;;;;;;;15.25;8.65;;;3.70;64.30;;;;;;5041710;28;20151;-76
2022/03/01 10:09:20;;;;;;;17.98;8.40;;;3.70;64.20;;;;;;5040530;28;20028;-74
2022/03/01 10:11:46;;;;;;;17.92;8.38;;;3.80;63.20;;;;;;5032347;28;20030;-75
2022/03/01 10:14:12;;;;;;;18.02;8.45;;;3.90;62.10;;;;;;5033025;28;20092;-75
2022/03/01 10:16:43;;;;;;;16.08;9.20;;;3.90;62.10;;;;;;5034188;28;20454;-75
2022/03/01 10:19:20;;;;;;;16.48;8.52;;;4.00;62.00;;;;;;5035484;28;20091;-75
2022/03/01 10:22:07;;;;;;;16.00;7.82;;;4.10;61.20;;;;;;5035904;28;20029;-75
2022/03/01 10:24:32;;;;;;;15.18;8.43;;;4.10;60.90;;;;;;5033994;28;20041;-75
2022/03/01 10:27:01;;;;;;;15.90;8.13;;;4.20;60.50;;;;;;5034783;28;20029;-75
2022/03/01 10:29:30;;;;;;;15.95;8.50;;;4.30;60.30;;;;;;5021304;28;20025;-74
2022/03/01 10:32:01;;;;;;;17.63;8.23;;;4.30;59.00;;;;;;5027952;28;20032;-75
2022/03/01 10:34:27;;;;;;;;;;;4.40;59.30;;;;;;5035076;28;20033;-75
2022/03/01 10:36:53;;;;;;;16.58;8.60;;;4.50;59.60;;;;;;5032733;28;20279;-76
2022/03/01 10:39:27;;;;;;;18.85;7.60;;;4.60;59.60;;;;;;5034895;28;20036;-74
2022/03/01 10:41:53;;;;;;;19.30;8.65;;;4.60;59.40;;;;;;5035942;28;20032;-74
2022/03/01 10:44:20;;;;;;;13.00;7.25;;;4.80;59.00;;;;;;5023683;28;20125;-75
2022/03/01 10:46:57;;;;;;;17.80;7.68;;;4.80;58.10;;;;;;5026592;28;20022;-75
2022/03/01 10:49:32;;;;;;;16.58;7.82;;;4.90;57.50;;;;;;5033103;28;20033;-75
2022/03/01 10:52:07;;;;;;;17.65;8.65;;;5.00;57.00;;;;;;5035538;28;20532;-75
2022/03/01 10:54:40;;;;;;;17.33;8.07;;;5.10;57.30;;;;;;5034640;28;20543;-75
2022/03/01 10:57:08;;;;;;;19.83;8.88;;;5.30;56.40;;;;;;5021310;28;20375;-74
2022/03/01 10:59:36;;;;;;;14.55;7.72;;;5.40;56.20;;;;;;5034235;28;20116;-75
2022/03/01 11:02:04;;;;;;;16.90;7.18;;;5.40;55.90;;;;;;5034988;28;20063;-75
2022/03/01 11:04:30;;;;;;;15.50;7.82;;;5.50;55.40;;;;;;5032881;28;20033;-75
2022/03/01 11:06:58;;;;;;;17.90;9.00;;;5.60;54.90;;;;;;5034294;28;20470;-76
2022/03/01 11:09:26;;;;;;;16.42;8.80;;;5.60;55.40;;;;;;5033855;28;20048;-76
2022/03/01 11:11:54;;;;;;;16.33;8.32;;;5.60;54.90;;;;;;5034607;28;20034;-74
2022/03/01 11:14:43;;;;;;;19.42;7.72;;;5.70;54.50;;;;;;5033298;28;20030;-74
2022/03/01 11:17:39;;;;;;;15.15;7.70;;;5.80;54.50;;;;;;5023703;28;20052;-74
2022/03/01 11:20:11;;;;;;;27.88;8.85;;;5.80;52.90;;;;;;5031607;28;20064;-75
2022/03/01 11:22:51;;;;;;;13.55;7.78;;;5.80;52.90;;;;;;5031836;28;20486;-75
2022/03/01 11:25:25;;;;;;;13.98;7.43;;;5.90;54.40;;;;;;5032886;28;20083;-75
2022/03/01 11:27:53;;;;;;;12.57;7.57;;;6.00;54.00;;;;;;5034249;28;20114;-75
2022/03/01 11:30:31;;;;;;;11.80;7.40;;;6.00;51.70;;;;;;5033882;28;20358;-75
2022/03/01 11:32:57;;;;;;;14.23;7.97;;;5.90;52.40;;;;;;5033821;28;20052;-75
2022/03/01 11:35:26;;;;;;;9.82;6.40;;;6.00;52.30;;;;;;5031102;28;20061;-74
2022/03/01 11:37:59;;;;;;;12.23;6.32;;;6.20;49.00;;;;;;5033930;28;20159;-75
2022/03/01 11:40:25;;;;;;;12.57;6.88;;;6.30;48.90;;;;;;5033376;28;20017;-75
2022/03/01 11:42:51;;;;;;;8.93;5.80;;;6.40;48.80;;;;;;5033676;28;20352;-75
2022/03/01 11:45:18;;;;;;;9.77;6.45;;;6.50;47.40;;;;;;5016682;28;20506;-76
2022/03/01 11:47:44;;;;;;;12.75;7.10;;;6.60;45.90;;;;;;5033970;28;20020;-74
2022/03/01 11:50:14;;;;;;;11.93;7.28;;;6.70;47.40;;;;;;5033797;28;20021;-75
2022/03/01 11:52:49;;;;;;;13.23;7.90;;;6.80;48.50;;;;;;5027335;28;20089;-75
2022/03/01 11:55:18;;;;;;;11.85;7.25;;;6.90;48.80;;;;;;5023175;28;20463;-74
2022/03/01 11:57:44;;;;;;;14.27;7.32;;;7.00;48.70;;;;;;5022073;28;20355;-75
2022/03/01 12:00:15;;;;;;;14.32;7.30;;;7.10;47.90;;;;;;5023036;28;20041;-75
2022/03/01 12:02:45;;;;;;;12.35;7.47;;;7.20;49.20;;;;;;5024710;28;20040;-75
2022/03/01 12:05:23;;;;;;;13.00;7.28;;;7.20;48.70;;;;;;5022349;28;20022;-75
2022/03/01 12:07:51;;;;;;;12.60;6.82;;;7.30;48.80;;;;;;5034930;28;20056;-75
2022/03/01 12:10:25;;;;;;;12.80;6.93;;;7.40;48.40;;;;;;5033019;28;20401;-74
2022/03/01 12:12:56;;;;;;;13.05;7.60;;;7.60;47.80;;;;;;5032051;28;20109;-74
2022/03/01 12:15:30;;;;;;;13.15;7.70;;;7.60;47.40;;;;;;5031832;28;20073;-74
2022/03/01 12:17:58;;;;;;;39.78;8.40;;;7.60;47.80;;;;;;5033518;28;20104;-74
2022/03/01 12:20:24;;;;;;;12.80;7.60;;;7.80;48.20;;;;;;5033077;28;20021;-74
2022/03/01 12:22:51;;;;;;;15.52;7.95;;;8.10;47.00;;;;;;5028254;28;20029;-74
2022/03/01 12:25:17;;;;;;;11.50;7.22;;;8.30;47.10;;;;;;5031985;28;20374;-74
2022/03/01 12:27:43;;;;;;;12.48;7.40;;;8.60;46.60;;;;;;5033772;28;20025;-74
2022/03/01 12:30:10;;;;;;;11.23;7.47;;;8.90;45.20;;;;;;5030547;28;20037;-74
2022/03/01 12:32:36;;;;;;;11.10;7.55;;;9.10;45.00;;;;;;5030709;28;20037;-75
2022/03/01 12:35:03;;;;;;;13.82;8.25;;;9.50;78.90;;;;;;5033118;28;20033;-74